Time;durP1;ratioP1;P1;durP2;ratioP2;P2;SDS_P1;SDS_P2;PMS_P1;PMS_P2;Temp;Humidity;BMP_temperature;BMP_pressure;BME280_temperature;BME280_humidity;BME280_pressure;Samples;Min_cycle;Max_cycle;Signal;HPM_P1;HPM_P2
2023/06/01 00:01:45;;;;;;;13.63;6.90;;;11.00;99.90;;;;;;5053279;28;20551;-59
2023/06/01 00:04:13;;;;;;;8.47;6.63;;;11.00;99.90;;;;;;5053157;28;20415;-59
2023/06/01 00:06:39;;;;;;;16.73;6.80;;;11.00;99.90;;;;;;5053342;28;20444;-59
2023/06/01 00:09:06;;;;;;;13.43;7.87;;;10.90;99.90;;;;;;5052921;28;20806;-59
2023/06/01 00:11:35;;;;;;;17.80;10.47;;;10.90;99.90;;;;;;5053095;28;20537;-59
2023/06/01 00:14:01;;;;;;;14.37;11.00;;;11.00;99.90;;;;;;5052979;28;20444;-59
2023/06/01 00:16:28;;;;;;;15.43;11.17;;;11.00;99.90;;;;;;5052950;28;20486;-59
2023/06/01 00:18:56;;;;;;;19.43;12.67;;;11.00;99.90;;;;;;5053548;28;20479;-58
2023/06/01 00:21:23;;;;;;;19.27;10.00;;;11.00;99.90;;;;;;5052997;28;20999;-58
2023/06/01 00:23:50;;;;;;;17.10;10.33;;;11.00;99.90;;;;;;5054307;28;20446;-59
2023/06/01 00:26:17;;;;;;;15.53;10.30;;;10.90;99.90;;;;;;5053790;28;20444;-59
2023/06/01 00:28:45;;;;;;;10.30;8.10;;;10.90;99.90;;;;;;5058281;28;20451;-59
2023/06/01 00:31:12;;;;;;;16.70;9.23;;;10.80;99.90;;;;;;5057732;28;20574;-58
2023/06/01 00:33:39;;;;;;;15.97;10.30;;;10.80;99.90;;;;;;5058207;28;20440;-59
2023/06/01 00:36:06;;;;;;;15.57;11.70;;;10.80;99.90;;;;;;5057329;28;21096;-59
2023/06/01 00:38:33;;;;;;;15.50;8.47;;;10.90;99.90;;;;;;5057241;28;20444;-58
2023/06/01 00:40:59;;;;;;;11.90;7.97;;;10.90;99.90;;;;;;5056795;28;20478;-58
2023/06/01 00:43:26;;;;;;;14.53;9.60;;;10.90;99.90;;;;;;5056833;28;20440;-58
2023/06/01 00:45:55;;;;;;;13.67;10.00;;;10.80;99.90;;;;;;5056964;28;20440;-59
2023/06/01 00:48:23;;;;;;;15.83;9.70;;;10.80;99.90;;;;;;5057855;28;20455;-59
2023/06/01 00:50:50;;;;;;;10.07;6.53;;;10.80;99.90;;;;;;5058054;28;20467;-59
2023/06/01 00:53:19;;;;;;;12.73;9.67;;;10.80;99.90;;;;;;5058476;28;20444;-58
2023/06/01 00:55:47;;;;;;;12.10;9.50;;;10.80;99.90;;;;;;5057362;28;20944;-58
2023/06/01 00:58:14;;;;;;;12.50;9.13;;;10.90;99.90;;;;;;5058386;28;20494;-57
2023/06/01 01:00:41;;;;;;;11.60;8.00;;;10.90;99.90;;;;;;5057703;28;20470;-58
2023/06/01 01:03:10;;;;;;;12.23;8.47;;;10.80;99.90;;;;;;5057605;28;20448;-56
2023/06/01 01:05:38;;;;;;;14.37;9.03;;;10.90;99.90;;;;;;5057400;28;20521;-58
2023/06/01 01:08:25;;;;;;;10.70;7.20;;;10.80;99.90;;;;;;5056138;28;20558;-58
2023/06/01 01:10:59;;;;;;;11.40;7.50;;;10.90;99.90;;;;;;5056536;28;20467;-58
2023/06/01 01:13:30;;;;;;;15.23;9.23;;;10.90;99.90;;;;;;5056607;28;20803;-59
2023/06/01 01:16:01;;;;;;;13.40;8.33;;;10.90;99.90;;;;;;5056305;28;20432;-60
2023/06/01 01:18:37;;;;;;;17.03;8.87;;;10.90;99.90;;;;;;5056263;28;20424;-60
2023/06/01 01:21:21;;;;;;;11.50;7.43;;;10.90;99.90;;;;;;5056101;28;20464;-58
2023/06/01 01:24:09;;;;;;;12.70;7.47;;;10.90;99.90;;;;;;5056166;28;20805;-58
2023/06/01 01:26:49;;;;;;;12.60;7.57;;;10.90;99.90;;;;;;5055833;28;20435;-58
2023/06/01 01:29:20;;;;;;;13.80;7.90;;;10.90;99.90;;;;;;5055707;28;20910;-59
2023/06/01 01:31:51;;;;;;;11.50;6.80;;;10.80;99.90;;;;;;5055537;28;20506;-59
2023/06/01 01:34:20;;;;;;;13.70;8.73;;;10.80;99.90;;;;;;5055358;28;20428;-59
2023/06/01 01:36:47;;;;;;;8.97;6.93;;;10.80;99.90;;;;;;5055625;28;20487;-59
2023/06/01 01:39:14;;;;;;;10.30;7.40;;;10.80;99.90;;;;;;5054580;28;20452;-59
2023/06/01 01:41:41;;;;;;;13.90;7.73;;;10.80;99.90;;;;;;5055510;28;20550;-59
2023/06/01 01:44:08;;;;;;;11.80;7.43;;;10.80;99.90;;;;;;5055599;28;20815;-59
2023/06/01 01:46:44;;;;;;;9.03;5.80;;;10.80;99.90;;;;;;5055192;28;20923;-58
2023/06/01 01:49:17;;;;;;;11.10;7.30;;;10.80;99.90;;;;;;5056504;28;20769;-58
2023/06/01 01:51:50;;;;;;;12.43;7.45;;;10.80;99.90;;;;;;5055042;28;20730;-59
2023/06/01 01:54:18;;;;;;;15.10;7.40;;;10.80;99.90;;;;;;5055620;28;20285;-58
2023/06/01 01:56:47;;;;;;;11.70;7.10;;;10.90;99.90;;;;;;5055287;28;20218;-58
2023/06/01 01:59:15;;;;;;;12.50;7.07;;;10.90;99.90;;;;;;5055442;28;20444;-58
2023/06/01 02:01:44;;;;;;;12.87;6.83;;;10.90;99.90;;;;;;5055920;28;20845;-59
2023/06/01 02:04:11;;;;;;;13.70;6.78;;;10.80;99.90;;;;;;5058671;28;20448;-59
2023/06/01 02:06:38;;;;;;;11.73;8.23;;;10.90;99.90;;;;;;5057293;28;20194;-58
2023/06/01 02:09:07;;;;;;;19.27;11.10;;;10.90;99.90;;;;;;5055717;28;20447;-58
2023/06/01 02:11:34;;;;;;;20.33;11.23;;;10.90;99.90;;;;;;5055629;28;20895;-59
2023/06/01 02:14:01;;;;;;;19.63;10.77;;;10.90;99.90;;;;;;5055114;28;20448;-59
2023/06/01 02:16:27;;;;;;;19.33;8.60;;;10.90;99.90;;;;;;5054845;28;20419;-58
2023/06/01 02:18:57;;;;;;;11.55;8.20;;;10.90;99.90;;;;;;5054935;28;20444;-59
2023/06/01 02:21:24;;;;;;;14.83;8.10;;;10.90;99.90;;;;;;5055156;28;20233;-59
2023/06/01 02:23:51;;;;;;;12.23;6.93;;;10.90;99.90;;;;;;5054911;28;20451;-59
2023/06/01 02:26:18;;;;;;;15.77;6.67;;;10.90;99.90;;;;;;5055016;28;20436;-59
2023/06/01 02:28:46;;;;;;;12.90;6.90;;;10.80;99.90;;;;;;5054753;28;20501;-58
2023/06/01 02:31:13;;;;;;;15.90;7.00;;;10.80;99.90;;;;;;5054150;28;20864;-59
2023/06/01 02:33:40;;;;;;;9.90;6.30;;;10.80;99.90;;;;;;5054373;28;20815;-58
2023/06/01 02:36:08;;;;;;;9.50;6.30;;;10.80;99.90;;;;;;5055135;28;20468;-58
2023/06/01 02:38:35;;;;;;;12.03;6.13;;;10.80;99.90;;;;;;5054397;28;20483;-58
2023/06/01 02:41:02;;;;;;;7.83;5.97;;;10.70;99.90;;;;;;5054358;28;20558;-58
2023/06/01 02:43:29;;;;;;;10.20;6.23;;;10.80;99.90;;;;;;5054437;28;20455;-58
2023/06/01 02:45:56;;;;;;;11.93;6.47;;;10.80;99.90;;;;;;5054612;28;20813;-59
2023/06/01 02:48:23;;;;;;;17.37;6.60;;;10.80;99.90;;;;;;5054574;28;20444;-59
2023/06/01 02:50:50;;;;;;;11.20;6.17;;;10.80;99.90;;;;;;5052907;28;20839;-58
2023/06/01 02:53:18;;;;;;;14.20;6.80;;;10.80;99.90;;;;;;5054051;28;20960;-58
2023/06/01 02:55:45;;;;;;;9.03;5.40;;;10.80;99.90;;;;;;5054162;28;20946;-58
2023/06/01 02:58:16;;;;;;;11.93;6.13;;;10.80;99.90;;;;;;5054476;28;20487;-58
2023/06/01 03:00:43;;;;;;;14.37;5.77;;;10.70;99.90;;;;;;5055423;28;20472;-58
2023/06/01 03:03:10;;;;;;;10.30;5.70;;;10.70;99.90;;;;;;5054337;28;20452;-58
2023/06/01 03:05:37;;;;;;;11.13;5.97;;;10.70;99.90;;;;;;5053922;28;20446;-58
2023/06/01 03:08:04;;;;;;;13.47;5.43;;;10.70;99.90;;;;;;5054418;28;20451;-59
2023/06/01 03:10:32;;;;;;;13.10;6.73;;;10.70;99.90;;;;;;5053814;28;20479;-58
2023/06/01 03:12:59;;;;;;;16.30;6.30;;;10.70;99.90;;;;;;5054441;28;20557;-58
2023/06/01 03:15:27;;;;;;;10.30;6.13;;;10.70;99.90;;;;;;5053709;28;20452;-58
2023/06/01 03:17:53;;;;;;;13.40;6.20;;;10.70;99.90;;;;;;5053977;28;20566;-58
2023/06/01 03:20:20;;;;;;;12.55;7.15;;;10.70;99.90;;;;;;5053599;28;20546;-58
2023/06/01 03:22:47;;;;;;;11.07;6.43;;;10.70;99.90;;;;;;5053803;28;20279;-58
2023/06/01 03:25:14;;;;;;;12.57;6.90;;;10.70;99.90;;;;;;5053738;28;20456;-59
2023/06/01 03:27:43;;;;;;;10.87;6.33;;;10.60;99.90;;;;;;5053596;28;20672;-59
2023/06/01 03:32:40;;;;;;;16.93;7.30;;;10.70;99.90;;;;;;5075290;22;20476;-62
2023/06/01 03:35:08;;;;;;;13.13;6.82;;;10.60;99.90;;;;;;5054147;28;20460;-62
2023/06/01 03:37:36;;;;;;;13.47;6.80;;;10.60;99.90;;;;;;5054453;28;20247;-62
2023/06/01 03:40:10;;;;;;;11.82;7.43;;;10.60;99.90;;;;;;5054661;28;20926;-63
2023/06/01 03:42:37;;;;;;;9.77;8.23;;;10.60;99.90;;;;;;5054232;28;20222;-63
2023/06/01 03:45:06;;;;;;;15.37;8.50;;;10.60;99.90;;;;;;5054221;28;20201;-62
2023/06/01 03:47:33;;;;;;;14.37;8.07;;;10.70;99.90;;;;;;5054362;28;20440;-63
2023/06/01 03:50:00;;;;;;;11.47;7.90;;;10.70;99.90;;;;;;5055061;28;20448;-63
2023/06/01 03:52:27;;;;;;;16.38;7.75;;;10.80;99.90;;;;;;5054470;28;20468;-64
2023/06/01 03:54:55;;;;;;;10.13;6.87;;;10.80;99.90;;;;;;5054168;28;20209;-63
2023/06/01 03:57:22;;;;;;;12.20;7.47;;;10.70;99.90;;;;;;5055100;28;20472;-63
2023/06/01 03:59:49;;;;;;;7.30;5.97;;;10.70;99.90;;;;;;5055121;28;20452;-62
2023/06/01 04:02:18;;;;;;;9.82;6.25;;;10.70;99.90;;;;;;5055105;28;20222;-63
2023/06/01 04:04:46;;;;;;;11.87;6.57;;;10.70;99.90;;;;;;5055355;28;20206;-63
2023/06/01 04:07:18;;;;;;;14.10;7.93;;;10.70;99.90;;;;;;5054214;28;21008;-63
2023/06/01 04:11:46;;;;;;;8.43;6.68;;;10.60;99.90;;;;;;5129691;27;20559;-62
2023/06/01 04:14:13;;;;;;;15.45;8.18;;;10.70;99.90;;;;;;5122666;28;20196;-63
2023/06/01 04:16:40;;;;;;;12.07;7.90;;;10.70;99.90;;;;;;5118484;28;20203;-64
2023/06/01 04:19:07;;;;;;;10.97;7.00;;;10.70;99.90;;;;;;5112718;28;20196;-63
2023/06/01 04:21:33;;;;;;;10.02;6.80;;;10.70;99.90;;;;;;5112440;28;20468;-63
2023/06/01 04:24:01;;;;;;;15.00;8.00;;;10.70;99.90;;;;;;5112410;28;20683;-63
2023/06/01 04:26:28;;;;;;;10.33;5.07;;;10.70;99.90;;;;;;5112629;28;20195;-63
2023/06/01 04:28:56;;;;;;;15.87;6.97;;;10.70;99.90;;;;;;5113713;28;20447;-63
2023/06/01 04:31:23;;;;;;;9.30;6.80;;;10.70;99.90;;;;;;5113967;28;20473;-64
2023/06/01 04:33:52;;;;;;;10.00;6.87;;;10.70;99.90;;;;;;5113945;28;20452;-63
2023/06/01 04:36:21;;;;;;;10.20;5.50;;;10.70;99.90;;;;;;5112543;28;20488;-63
2023/06/01 04:38:51;;;;;;;8.63;5.40;;;10.70;99.90;;;;;;5112089;28;20445;-64
2023/06/01 04:41:20;;;;;;;9.33;5.77;;;10.70;99.90;;;;;;5111710;28;20544;-63
2023/06/01 04:43:51;;;;;;;11.33;4.80;;;10.80;99.90;;;;;;5111496;28;20426;-61
2023/06/01 04:46:20;;;;;;;7.63;4.83;;;10.80;99.90;;;;;;5112533;28;20479;-63
2023/06/01 04:48:47;;;;;;;7.83;4.70;;;10.90;99.90;;;;;;5111694;28;20810;-61
2023/06/01 04:51:19;;;;;;;7.43;3.80;;;10.90;99.90;;;;;;5111536;28;20488;-63
2023/06/01 04:53:49;;;;;;;4.80;4.13;;;10.80;99.90;;;;;;5111414;28;20433;-64
2023/06/01 04:56:18;;;;;;;5.83;4.37;;;10.80;99.90;;;;;;5110594;28;20452;-64
2023/06/01 04:58:46;;;;;;;8.33;4.20;;;10.90;99.90;;;;;;5110386;28;20510;-63
2023/06/01 05:01:15;;;;;;;6.80;4.43;;;11.00;99.90;;;;;;5110213;28;20518;-63
2023/06/01 05:03:43;;;;;;;8.40;4.63;;;11.00;99.90;;;;;;5111387;28;20497;-63
2023/06/01 05:06:11;;;;;;;6.90;4.47;;;11.10;99.90;;;;;;5110661;28;20446;-63
2023/06/01 05:08:38;;;;;;;6.53;4.70;;;11.10;99.90;;;;;;5110383;28;20444;-62
2023/06/01 05:11:06;;;;;;;9.40;5.77;;;11.10;99.90;;;;;;5110063;28;20488;-62
2023/06/01 05:13:33;;;;;;;8.10;4.77;;;11.00;99.90;;;;;;5110711;28;20532;-62
2023/06/01 05:16:00;;;;;;;7.93;5.73;;;11.00;99.90;;;;;;5110690;28;20444;-62
2023/06/01 05:18:27;;;;;;;6.90;4.53;;;11.10;99.90;;;;;;5111037;28;20446;-61
2023/06/01 05:20:56;;;;;;;5.97;4.70;;;11.10;99.90;;;;;;5110945;28;20488;-63
2023/06/01 05:23:23;;;;;;;10.77;5.53;;;11.20;99.90;;;;;;5098389;28;20468;-63
2023/06/01 05:25:50;;;;;;;6.30;5.13;;;11.30;99.90;;;;;;5096896;28;20442;-64
2023/06/01 05:28:17;;;;;;;6.20;4.70;;;11.30;99.90;;;;;;5096353;28;20442;-62
2023/06/01 05:30:44;;;;;;;7.70;5.60;;;11.40;99.90;;;;;;5096632;28;20499;-62
2023/06/01 05:33:11;;;;;;;9.97;5.60;;;11.40;99.90;;;;;;5096873;28;20518;-62
2023/06/01 05:35:37;;;;;;;9.03;5.27;;;11.40;99.90;;;;;;5096564;28;20442;-62
2023/06/01 05:38:05;;;;;;;6.50;4.80;;;11.50;99.90;;;;;;5096537;28;20445;-62
2023/06/01 05:40:32;;;;;;;10.60;6.80;;;11.60;99.90;;;;;;5096013;28;20541;-63
2023/06/01 05:42:59;;;;;;;10.87;5.77;;;11.60;99.90;;;;;;5096643;28;20454;-64
2023/06/01 05:45:26;;;;;;;11.03;7.03;;;11.60;99.90;;;;;;5096875;28;20450;-63
2023/06/01 05:47:53;;;;;;;9.30;6.33;;;11.60;99.90;;;;;;5096796;28;20451;-62
2023/06/01 05:50:20;;;;;;;9.53;7.20;;;11.60;99.90;;;;;;5096185;28;21090;-62
2023/06/01 05:52:47;;;;;;;16.37;8.77;;;11.60;99.90;;;;;;5096664;28;20449;-64
2023/06/01 05:55:15;;;;;;;18.20;7.27;;;11.70;99.90;;;;;;5096620;28;20442;-62
2023/06/01 05:57:42;;;;;;;8.53;5.57;;;11.70;99.90;;;;;;5096465;28;20936;-62
2023/06/01 06:00:11;;;;;;;13.70;5.27;;;11.70;99.90;;;;;;5098287;28;20475;-61
2023/06/01 06:02:37;;;;;;;8.90;6.27;;;11.80;99.90;;;;;;5096539;28;20468;-62
2023/06/01 06:05:05;;;;;;;10.83;6.77;;;11.80;99.90;;;;;;5096213;28;20447;-62
2023/06/01 06:07:32;;;;;;;9.00;5.87;;;11.90;99.90;;;;;;5096172;28;20924;-63
2023/06/01 06:09:59;;;;;;;14.67;5.73;;;12.00;99.90;;;;;;5096044;28;20459;-63
2023/06/01 06:12:28;;;;;;;10.27;6.03;;;12.00;99.90;;;;;;5096267;28;20462;-64
2023/06/01 06:14:55;;;;;;;10.37;5.67;;;12.10;99.90;;;;;;5095702;28;20932;-63
2023/06/01 06:17:22;;;;;;;9.77;5.83;;;12.20;99.90;;;;;;5097523;28;20533;-63
2023/06/01 06:19:49;;;;;;;9.63;7.07;;;12.30;99.90;;;;;;5097228;28;20453;-63
2023/06/01 06:22:16;;;;;;;8.97;6.20;;;12.30;99.90;;;;;;5098746;28;20873;-62
2023/06/01 06:24:43;;;;;;;8.57;5.70;;;12.30;99.90;;;;;;5096671;28;20533;-63
2023/06/01 06:27:10;;;;;;;9.37;6.77;;;12.30;99.90;;;;;;5096272;28;20438;-63
2023/06/01 06:29:38;;;;;;;11.43;7.63;;;12.30;99.90;;;;;;5095374;28;20438;-63
2023/06/01 06:32:06;;;;;;;9.60;6.37;;;12.30;99.90;;;;;;5095669;28;20482;-62
2023/06/01 06:34:35;;;;;;;11.20;7.53;;;12.30;99.90;;;;;;5094874;28;20442;-62
2023/06/01 06:37:03;;;;;;;11.17;7.37;;;12.30;99.90;;;;;;5095722;28;20452;-61
2023/06/01 06:39:30;;;;;;;9.53;6.80;;;12.40;99.90;;;;;;5095522;28;20857;-61
2023/06/01 06:41:57;;;;;;;10.43;6.33;;;12.40;99.90;;;;;;5095185;28;20473;-63
2023/06/01 06:44:23;;;;;;;9.60;6.03;;;12.40;99.90;;;;;;5095324;28;20950;-62
2023/06/01 06:46:52;;;;;;;12.80;6.67;;;12.40;99.90;;;;;;5094629;28;20939;-63
2023/06/01 06:49:19;;;;;;;9.33;6.63;;;12.40;99.90;;;;;;5095921;28;20628;-63
2023/06/01 06:51:46;;;;;;;13.17;7.57;;;12.40;99.90;;;;;;5095048;28;20478;-62
2023/06/01 06:54:13;;;;;;;15.37;8.30;;;12.50;99.90;;;;;;5094885;28;20485;-62
2023/06/01 06:56:40;;;;;;;18.13;8.50;;;12.50;99.90;;;;;;5094798;28;20446;-63
2023/06/01 06:59:06;;;;;;;15.73;8.17;;;12.40;99.90;;;;;;5094824;28;20439;-63
2023/06/01 07:01:35;;;;;;;14.37;9.87;;;12.50;99.90;;;;;;5094264;28;21010;-63
2023/06/01 07:04:04;;;;;;;19.70;11.13;;;12.50;99.90;;;;;;5094765;28;20932;-63
2023/06/01 07:06:32;;;;;;;22.73;11.57;;;12.60;99.90;;;;;;5094923;28;20893;-63
2023/06/01 07:08:59;;;;;;;19.37;12.10;;;12.50;99.90;;;;;;5094397;28;20449;-62
2023/06/01 07:11:26;;;;;;;26.57;13.23;;;12.50;99.90;;;;;;5094051;28;20486;-59
2023/06/01 07:13:53;;;;;;;18.63;12.57;;;12.50;99.90;;;;;;5094736;28;20499;-63
2023/06/01 07:16:20;;;;;;;19.33;13.57;;;12.50;99.90;;;;;;5094520;28;20547;-63
2023/06/01 07:18:47;;;;;;;18.03;12.57;;;12.50;99.90;;;;;;5094418;28;20442;-62
2023/06/01 07:21:15;;;;;;;20.50;12.57;;;12.60;99.90;;;;;;5093900;28;21006;-63
2023/06/01 07:23:43;;;;;;;18.27;12.13;;;12.60;99.90;;;;;;5094943;28;20444;-62
2023/06/01 07:26:10;;;;;;;16.03;11.50;;;12.60;99.90;;;;;;5094266;28;20438;-62
2023/06/01 07:28:36;;;;;;;18.97;12.63;;;12.70;99.90;;;;;;5094335;28;20438;-63
2023/06/01 07:31:04;;;;;;;18.40;11.13;;;12.70;99.90;;;;;;5094988;28;20501;-63
2023/06/01 07:33:33;;;;;;;19.70;11.97;;;12.80;99.90;;;;;;5094038;28;20449;-63
2023/06/01 07:36:00;;;;;;;21.93;13.10;;;12.80;99.90;;;;;;5094302;28;20544;-63
2023/06/01 07:38:28;;;;;;;20.40;13.70;;;12.90;99.90;;;;;;5094086;28;20438;-62
2023/06/01 07:40:55;;;;;;;22.17;14.53;;;12.90;99.90;;;;;;5094612;28;20469;-63
2023/06/01 07:43:22;;;;;;;19.00;13.80;;;12.90;99.90;;;;;;5093974;28;20961;-61
2023/06/01 07:45:48;;;;;;;17.37;12.37;;;13.00;99.90;;;;;;5093374;28;20931;-63
2023/06/01 07:48:16;;;;;;;17.07;11.30;;;13.10;99.90;;;;;;5093677;28;20445;-63
2023/06/01 07:50:43;;;;;;;21.47;11.80;;;13.10;99.90;;;;;;5093554;28;20467;-64
2023/06/01 07:53:10;;;;;;;13.70;10.77;;;13.10;99.90;;;;;;5093230;28;20958;-63
2023/06/01 07:55:38;;;;;;;14.90;10.23;;;13.10;99.90;;;;;;5094010;28;20441;-63
2023/06/01 07:58:05;;;;;;;15.40;9.53;;;13.10;99.90;;;;;;5093430;28;20442;-63
2023/06/01 08:00:32;;;;;;;12.30;9.03;;;13.00;99.90;;;;;;5093245;28;20946;-63
2023/06/01 08:02:59;;;;;;;14.80;9.67;;;13.00;99.90;;;;;;5093976;28;20442;-63
2023/06/01 08:05:25;;;;;;;10.70;7.43;;;13.00;99.90;;;;;;5093420;28;20568;-62
2023/06/01 08:07:52;;;;;;;12.43;8.17;;;12.90;99.90;;;;;;5093108;28;20441;-63
2023/06/01 08:10:19;;;;;;;8.70;7.80;;;13.00;99.90;;;;;;5093018;28;20451;-63
2023/06/01 08:12:47;;;;;;;14.20;7.70;;;13.00;99.90;;;;;;5092691;28;20574;-63
2023/06/01 08:15:15;;;;;;;10.97;8.20;;;13.00;99.90;;;;;;5093464;28;20438;-63
2023/06/01 08:17:43;;;;;;;8.57;6.63;;;13.10;99.90;;;;;;5093177;28;20962;-62
2023/06/01 08:20:12;;;;;;;10.80;6.50;;;13.10;99.90;;;;;;5093029;28;20472;-62
2023/06/01 08:22:38;;;;;;;8.93;7.00;;;13.10;99.90;;;;;;5093171;28;20481;-63
2023/06/01 08:25:06;;;;;;;10.77;6.40;;;13.20;99.90;;;;;;5093229;28;20448;-63
2023/06/01 08:27:33;;;;;;;11.37;7.07;;;13.20;99.90;;;;;;5093740;28;20442;-63
2023/06/01 08:30:01;;;;;;;10.00;6.70;;;13.20;99.90;;;;;;5093593;28;20442;-63
2023/06/01 08:32:28;;;;;;;6.93;5.60;;;13.20;99.90;;;;;;5093013;28;20474;-63
2023/06/01 08:34:55;;;;;;;8.50;6.00;;;13.30;99.90;;;;;;5093240;28;20499;-63
2023/06/01 08:37:22;;;;;;;16.73;7.07;;;13.50;99.90;;;;;;5093553;28;20452;-64
2023/06/01 08:39:49;;;;;;;8.90;6.70;;;13.60;99.90;;;;;;5094070;28;20529;-62
2023/06/01 08:42:23;;;;;;;9.17;6.17;;;13.70;99.90;;;;;;5094032;28;20470;-63
2023/06/01 08:44:55;;;;;;;11.50;5.63;;;13.80;99.90;;;;;;5094809;28;20430;-64
2023/06/01 08:47:25;;;;;;;16.47;5.83;;;13.90;99.90;;;;;;5094726;28;20438;-63
2023/06/01 08:49:53;;;;;;;11.33;5.27;;;13.90;99.90;;;;;;5093989;28;20434;-63
2023/06/01 08:52:22;;;;;;;5.20;4.40;;;13.80;99.90;;;;;;5093355;28;20482;-64
2023/06/01 08:54:50;;;;;;;8.03;5.30;;;13.80;99.90;;;;;;5093800;28;20442;-63
2023/06/01 08:57:17;;;;;;;9.80;6.10;;;13.80;99.90;;;;;;5095279;28;20759;-63
2023/06/01 08:59:46;;;;;;;7.43;5.53;;;13.70;99.90;;;;;;5097773;28;20533;-63
2023/06/01 09:02:14;;;;;;;6.90;4.70;;;13.70;99.90;;;;;;5097482;28;20458;-64
2023/06/01 09:04:44;;;;;;;6.80;4.27;;;13.70;99.90;;;;;;5097135;28;20445;-63
2023/06/01 09:07:11;;;;;;;6.57;4.00;;;13.70;99.90;;;;;;5097357;28;20434;-63
2023/06/01 09:09:38;;;;;;;6.50;4.30;;;13.80;99.90;;;;;;5096891;28;20454;-63
2023/06/01 09:12:18;;;;;;;8.43;4.30;;;13.90;99.90;;;;;;5097017;28;20484;-63
2023/06/01 09:14:45;;;;;;;7.43;3.90;;;14.10;99.90;;;;;;5097001;28;20571;-63
2023/06/01 09:17:15;;;;;;;5.17;3.50;;;14.10;99.90;;;;;;5096757;28;20838;-62
2023/06/01 09:19:45;;;;;;;4.60;3.30;;;14.10;99.90;;;;;;5096494;28;20453;-63
2023/06/01 09:22:12;;;;;;;4.97;3.40;;;14.00;99.90;;;;;;5096351;28;20461;-63
2023/06/01 09:24:40;;;;;;;5.63;3.37;;;14.00;99.90;;;;;;5096387;28;20536;-63
2023/06/01 09:27:08;;;;;;;3.30;2.70;;;14.10;99.90;;;;;;5097196;28;20493;-62
2023/06/01 09:29:34;;;;;;;4.33;3.30;;;14.00;99.90;;;;;;5096357;28;20442;-63
2023/06/01 09:32:02;;;;;;;5.20;2.80;;;14.00;99.90;;;;;;5133546;22;20946;-59
2023/06/01 09:34:30;;;;;;;3.80;2.87;;;14.10;99.90;;;;;;5097478;28;20448;-59
2023/06/01 09:37:06;;;;;;;3.80;2.70;;;14.20;99.90;;;;;;5097394;28;20477;-60
2023/06/01 09:39:35;;;;;;;4.30;2.87;;;14.20;99.90;;;;;;5096983;28;20426;-58
2023/06/01 09:42:02;;;;;;;4.60;2.50;;;14.20;99.90;;;;;;5096699;28;20997;-58
2023/06/01 09:44:30;;;;;;;4.53;3.27;;;14.30;99.90;;;;;;5097156;28;20449;-60
2023/06/01 09:46:58;;;;;;;3.80;2.90;;;14.40;99.90;;;;;;5097063;28;20470;-59
2023/06/01 09:49:26;;;;;;;4.93;2.93;;;14.50;99.90;;;;;;5097115;28;20438;-59
2023/06/01 09:51:54;;;;;;;4.20;2.77;;;14.60;99.90;;;;;;5096914;28;20478;-60
2023/06/01 09:54:28;;;;;;;6.70;3.13;;;14.50;99.90;;;;;;5096690;28;20438;-58
2023/06/01 09:56:56;;;;;;;4.60;2.67;;;14.50;99.90;;;;;;5096537;28;20431;-58
2023/06/01 09:59:24;;;;;;;3.57;2.43;;;14.70;99.90;;;;;;5096872;28;20453;-61
2023/06/01 10:01:52;;;;;;;3.13;2.73;;;14.70;99.90;;;;;;5096729;28;20462;-59
2023/06/01 10:04:23;;;;;;;3.63;2.33;;;14.80;99.90;;;;;;5096425;28;20520;-59
2023/06/01 10:06:52;;;;;;;4.20;2.47;;;14.90;99.90;;;;;;5096930;28;20431;-59
2023/06/01 10:09:20;;;;;;;3.17;2.30;;;14.90;99.90;;;;;;5097984;28;20446;-58
2023/06/01 10:11:50;;;;;;;3.80;2.70;;;14.80;99.90;;;;;;5096731;28;20477;-59
2023/06/01 10:14:17;;;;;;;3.20;2.90;;;14.80;99.90;;;;;;5096127;28;20443;-58
2023/06/01 10:16:44;;;;;;;3.17;2.67;;;14.80;99.90;;;;;;5095119;28;20450;-60
2023/06/01 10:19:12;;;;;;;4.03;2.87;;;14.80;99.90;;;;;;5095737;28;20963;-58
2023/06/01 10:21:42;;;;;;;3.53;2.77;;;14.90;99.90;;;;;;5096040;28;20467;-60
2023/06/01 10:24:09;;;;;;;4.07;2.93;;;14.90;99.90;;;;;;5096110;28;20511;-60
2023/06/01 10:26:55;;;;;;;3.13;2.73;;;15.00;99.90;;;;;;5096534;28;20434;-58
2023/06/01 10:29:24;;;;;;;3.13;2.93;;;15.00;99.90;;;;;;5096948;28;20506;-60
2023/06/01 10:31:51;;;;;;;5.67;2.93;;;15.00;99.80;;;;;;5096457;28;20490;-59
2023/06/01 10:34:38;;;;;;;6.80;3.20;;;15.00;99.90;;;;;;5096548;28;20526;-60
2023/06/01 10:37:15;;;;;;;3.67;2.47;;;15.10;99.90;;;;;;5096610;28;20427;-58
2023/06/01 10:39:42;;;;;;;3.03;2.63;;;15.10;99.90;;;;;;5095802;28;20481;-60
2023/06/01 10:42:49;;;;;;;2.93;2.50;;;15.00;99.90;;;;;;5096465;28;20843;-59
2023/06/01 10:45:39;;;;;;;2.97;2.67;;;15.10;99.90;;;;;;5094872;28;20426;-59
2023/06/01 10:48:10;;;;;;;4.23;3.60;;;15.20;99.90;;;;;;5094688;28;20516;-60
2023/06/01 10:50:37;;;;;;;3.90;3.37;;;15.20;99.70;;;;;;5095890;28;20816;-59
2023/06/01 10:53:26;;;;;;;2.90;2.60;;;15.20;99.80;;;;;;5095104;28;20518;-58
2023/06/01 10:56:23;;;;;;;3.07;2.77;;;15.20;99.70;;;;;;5094951;28;20447;-59
2023/06/01 10:59:11;;;;;;;2.70;2.50;;;15.20;99.80;;;;;;5095229;28;20545;-59
2023/06/01 11:01:40;;;;;;;2.33;2.13;;;15.20;99.70;;;;;;5095299;28;20465;-60
2023/06/01 11:04:08;;;;;;;2.50;2.10;;;15.30;99.70;;;;;;5095172;28;20438;-60
2023/06/01 11:06:38;;;;;;;2.70;2.50;;;15.30;99.20;;;;;;5095245;28;20956;-59
2023/06/01 11:09:06;;;;;;;3.80;3.40;;;15.30;99.20;;;;;;5095645;28;20887;-59
2023/06/01 11:11:59;;;;;;;4.90;2.80;;;15.20;99.90;;;;;;5095513;28;20459;-59
2023/06/01 11:14:29;;;;;;;3.20;2.40;;;15.20;99.60;;;;;;5095313;28;20943;-60
2023/06/01 11:17:28;;;;;;;4.00;3.00;;;15.20;99.90;;;;;;5095203;28;20454;-59
2023/06/01 11:20:00;;;;;;;3.33;3.03;;;15.40;99.50;;;;;;5094937;28;21017;-60
2023/06/01 11:22:35;;;;;;;4.37;3.97;;;15.30;99.20;;;;;;5095769;28;20493;-59
2023/06/01 11:25:07;;;;;;;4.53;3.47;;;15.30;99.80;;;;;;5096049;28;20495;-59
2023/06/01 11:27:35;;;;;;;4.90;3.30;;;15.30;99.90;;;;;;5095985;28;20430;-59
2023/06/01 11:30:03;;;;;;;4.47;3.20;;;15.40;99.90;;;;;;5095703;28;20486;-60
2023/06/01 11:32:36;;;;;;;3.30;3.00;;;15.30;99.50;;;;;;5095795;28;20493;-59
2023/06/01 11:35:17;;;;;;;4.23;3.23;;;15.20;99.90;;;;;;5096451;28;20491;-60
2023/06/01 11:37:47;;;;;;;3.63;3.10;;;15.10;99.90;;;;;;5095853;28;20422;-60
2023/06/01 11:40:14;;;;;;;3.83;2.93;;;15.10;99.90;;;;;;5095260;28;20449;-59
2023/06/01 11:42:41;;;;;;;3.13;2.57;;;15.10;99.90;;;;;;5094804;28;20976;-60
2023/06/01 11:45:16;;;;;;;3.27;2.97;;;15.10;99.90;;;;;;5095541;28;20890;-59
2023/06/01 11:47:45;;;;;;;4.07;3.20;;;15.10;99.90;;;;;;5095914;28;20967;-60
2023/06/01 11:50:21;;;;;;;3.57;3.27;;;15.00;99.90;;;;;;5095402;28;20943;-59
2023/06/01 11:52:48;;;;;;;4.20;3.20;;;15.10;99.90;;;;;;5095356;28;20486;-60
2023/06/01 11:55:15;;;;;;;5.80;2.77;;;15.20;99.90;;;;;;5095255;28;20446;-59
2023/06/01 11:57:43;;;;;;;6.20;3.63;;;15.20;99.90;;;;;;5094949;28;20512;-58
2023/06/01 12:00:13;;;;;;;4.50;4.10;;;15.20;99.90;;;;;;5095053;28;20460;-59
2023/06/01 12:02:41;;;;;;;5.13;4.03;;;15.20;99.90;;;;;;5094636;28;20458;-60
2023/06/01 12:05:10;;;;;;;4.20;3.80;;;15.30;99.90;;;;;;5095620;28;20550;-59
2023/06/01 12:07:45;;;;;;;4.43;3.80;;;15.20;99.90;;;;;;5094784;28;20809;-61
2023/06/01 12:10:13;;;;;;;4.60;4.20;;;15.10;99.90;;;;;;5094302;28;20483;-59
2023/06/01 12:12:40;;;;;;;4.30;3.90;;;15.00;99.90;;;;;;5095585;28;20509;-59
2023/06/01 12:15:09;;;;;;;6.43;4.23;;;15.00;99.90;;;;;;5096395;28;20446;-60
2023/06/01 12:17:49;;;;;;;6.30;4.17;;;15.00;99.90;;;;;;5096073;28;20835;-59
2023/06/01 12:20:29;;;;;;;6.13;4.17;;;14.90;99.90;;;;;;5096699;28;20472;-59
2023/06/01 12:22:56;;;;;;;4.10;3.70;;;14.90;99.90;;;;;;5096085;28;20462;-60
2023/06/01 12:25:23;;;;;;;4.50;3.70;;;15.00;99.90;;;;;;5096163;28;20449;-61
2023/06/01 12:28:03;;;;;;;4.27;3.33;;;15.00;99.90;;;;;;5095298;28;20446;-60
2023/06/01 12:30:30;;;;;;;4.93;4.10;;;15.00;99.90;;;;;;5095566;28;20446;-59
2023/06/01 12:32:57;;;;;;;6.40;4.40;;;15.20;99.90;;;;;;5097771;28;20481;-59
2023/06/01 12:35:23;;;;;;;5.07;4.10;;;15.30;99.90;;;;;;5098960;28;20438;-58
2023/06/01 12:38:06;;;;;;;4.37;3.97;;;15.50;99.90;;;;;;5099233;28;20934;-59
2023/06/01 12:40:33;;;;;;;6.07;4.80;;;15.50;99.60;;;;;;5099521;28;20757;-59
2023/06/01 12:43:00;;;;;;;5.00;4.30;;;15.50;99.50;;;;;;5099268;28;20438;-60
2023/06/01 12:45:36;;;;;;;5.63;4.30;;;15.50;99.20;;;;;;5099060;28;20947;-60
2023/06/01 12:48:03;;;;;;;7.93;4.40;;;15.50;99.00;;;;;;5098932;28;20411;-60
2023/06/01 12:50:33;;;;;;;7.67;3.80;;;15.50;98.40;;;;;;5100284;28;20502;-60
2023/06/01 12:53:02;;;;;;;5.40;3.77;;;15.70;98.50;;;;;;5101358;28;20497;-58
2023/06/01 12:55:30;;;;;;;5.07;3.50;;;15.90;98.10;;;;;;5100561;28;20441;-59